Time;durP1;ratioP1;P1;durP2;ratioP2;P2;SDS_P1;SDS_P2;PMS_P1;PMS_P2;Temp;Humidity;BMP_temperature;BMP_pressure;BME280_temperature;BME280_humidity;BME280_pressure;Samples;Min_cycle;Max_cycle;Signal;HPM_P1;HPM_P2
2021/07/25 00:00:17;;;;;;;48.50;32.00;;;;;;;;;;5011984;28;20483;-50
2021/07/25 00:02:43;;;;;;;46.77;31.07;;;;;;;;;;5012571;28;20404;-49
2021/07/25 00:05:09;;;;;;;46.73;31.07;;;;;;;;;;5012524;28;20407;-49
2021/07/25 00:07:35;;;;;;;45.23;30.60;;;;;;;;;;5012143;28;20802;-49
2021/07/25 00:10:02;;;;;;;45.63;29.50;;;;;;;;;;5012198;28;20426;-49
2021/07/25 00:12:28;;;;;;;45.87;30.17;;;;;;;;;;5011917;28;20391;-49
2021/07/25 00:14:54;;;;;;;44.40;29.50;;;;;;;;;;5012039;28;20365;-49
2021/07/25 00:17:20;;;;;;;48.27;31.77;;;;;;;;;;5011986;28;20482;-49
2021/07/25 00:19:46;;;;;;;41.67;29.00;;;;;;;;;;5012063;28;20502;-49
2021/07/25 00:22:14;;;;;;;205.43;86.60;;;;;;;;;;5011682;28;20476;-49
2021/07/25 00:24:48;;;;;;;88.30;30.13;;;;;;;;;;5011997;28;20434;-49
2021/07/25 00:27:14;;;;;;;44.37;30.67;;;;;;;;;;5011862;28;20433;-49
2021/07/25 00:29:40;;;;;;;142.43;62.00;;;;;;;;;;5011849;28;20587;-49
2021/07/25 00:32:08;;;;;;;40.00;27.90;;;;;;;;;;5011676;28;20397;-49
2021/07/25 00:34:34;;;;;;;38.30;28.97;;;;;;;;;;5011927;28;20399;-50
2021/07/25 00:37:01;;;;;;;45.17;29.50;;;;;;;;;;5011720;28;20499;-49
2021/07/25 00:39:27;;;;;;;41.20;29.10;;;;;;;;;;5011622;28;20410;-50
2021/07/25 00:41:53;;;;;;;42.30;29.93;;;;;;;;;;5011273;28;20430;-49
2021/07/25 00:44:19;;;;;;;42.10;28.10;;;;;;;;;;5011543;28;20419;-49
2021/07/25 00:46:46;;;;;;;37.10;28.23;;;;;;;;;;5011532;28;20428;-49
2021/07/25 00:49:13;;;;;;;43.10;29.40;;;;;;;;;;5011556;28;20457;-49
2021/07/25 00:51:39;;;;;;;42.00;30.90;;;;;;;;;;5011126;28;20539;-49
2021/07/25 00:54:06;;;;;;;40.37;27.27;;;;;;;;;;5011464;28;20406;-49
2021/07/25 00:56:32;;;;;;;40.10;27.67;;;;;;;;;;5011330;28;20432;-49
2021/07/25 00:58:58;;;;;;;42.73;26.90;;;;;;;;;;5011203;28;20916;-49
2021/07/25 01:01:24;;;;;;;38.60;28.33;;;;;;;;;;5010798;28;20435;-49
2021/07/25 01:04:02;;;;;;;36.90;26.90;;;;;;;;;;5010858;28;20419;-49
2021/07/25 01:06:34;;;;;;;40.47;27.73;;;;;;;;;;5010760;28;20546;-49
2021/07/25 01:09:02;;;;;;;41.30;28.33;;;;;;;;;;5011111;28;20406;-49
2021/07/25 01:11:33;;;;;;;40.23;28.07;;;;;;;;;;5010939;28;20570;-49
2021/07/25 01:14:00;;;;;;;43.27;28.83;;;;;;;;;;5011330;28;20406;-49
2021/07/25 01:16:26;;;;;;;40.97;28.20;;;;;;;;;;5010983;28;20472;-49
2021/07/25 01:18:52;;;;;;;43.87;28.40;;;;;;;;;;5011128;28;20469;-49
2021/07/25 01:21:19;;;;;;;47.30;30.57;;;;;;;;;;5010661;28;20431;-49
2021/07/25 01:23:48;;;;;;;48.77;29.67;;;;;;;;;;5010832;28;20413;-49
2021/07/25 01:26:17;;;;;;;46.33;30.40;;;;;;;;;;5010955;28;20772;-50
2021/07/25 01:28:48;;;;;;;45.00;30.57;;;;;;;;;;5011148;28;20405;-49
2021/07/25 01:31:23;;;;;;;44.63;30.07;;;;;;;;;;5010857;28;20764;-49
2021/07/25 01:33:49;;;;;;;48.90;31.30;;;;;;;;;;5010968;28;20385;-49
2021/07/25 01:36:15;;;;;;;49.20;29.47;;;;;;;;;;5010827;28;20441;-49
2021/07/25 01:38:41;;;;;;;40.70;29.70;;;;;;;;;;5010934;28;20497;-49
2021/07/25 01:41:07;;;;;;;43.80;29.93;;;;;;;;;;5010960;28;21021;-50
2021/07/25 01:43:34;;;;;;;40.87;29.07;;;;;;;;;;5010862;28;20866;-49
2021/07/25 01:46:00;;;;;;;37.93;27.43;;;;;;;;;;5011119;28;20489;-49
2021/07/25 01:48:26;;;;;;;48.37;31.67;;;;;;;;;;5010868;28;20883;-49
2021/07/25 01:50:52;;;;;;;46.00;29.90;;;;;;;;;;5010265;28;20513;-49
2021/07/25 01:53:19;;;;;;;42.50;29.03;;;;;;;;;;5010642;28;20427;-49
2021/07/25 01:55:45;;;;;;;44.67;29.53;;;;;;;;;;5010922;28;20817;-49
2021/07/25 01:58:10;;;;;;;41.40;29.70;;;;;;;;;;5010595;28;20407;-49
2021/07/25 02:00:37;;;;;;;41.97;30.03;;;;;;;;;;5013414;28;20447;-49
2021/07/25 02:03:03;;;;;;;44.30;29.40;;;;;;;;;;5014644;28;20402;-49
2021/07/25 02:05:29;;;;;;;43.30;28.97;;;;;;;;;;5014455;28;20394;-49
2021/07/25 02:07:55;;;;;;;42.10;28.00;;;;;;;;;;5014654;28;20994;-49
2021/07/25 02:10:24;;;;;;;51.37;31.47;;;;;;;;;;5014222;28;20455;-49
2021/07/25 02:12:50;;;;;;;47.43;31.97;;;;;;;;;;5014459;28;20436;-49
2021/07/25 02:15:16;;;;;;;50.33;30.43;;;;;;;;;;5014283;28;20402;-49
2021/07/25 02:17:42;;;;;;;42.80;29.60;;;;;;;;;;5014286;28;20438;-49
2021/07/25 02:20:08;;;;;;;45.07;28.70;;;;;;;;;;5014268;28;20416;-49
2021/07/25 02:22:34;;;;;;;44.70;28.60;;;;;;;;;;5014081;28;20895;-49
2021/07/25 02:25:00;;;;;;;41.50;29.40;;;;;;;;;;5014140;28;20407;-50
2021/07/25 02:27:26;;;;;;;52.47;30.67;;;;;;;;;;5014142;28;20959;-49
2021/07/25 02:29:52;;;;;;;44.80;29.70;;;;;;;;;;5014136;28;20763;-49
2021/07/25 02:32:18;;;;;;;40.07;27.97;;;;;;;;;;5013699;28;20409;-49
2021/07/25 02:34:44;;;;;;;45.30;28.13;;;;;;;;;;5014278;28;20417;-49
2021/07/25 02:37:11;;;;;;;51.93;30.50;;;;;;;;;;5013893;28;20894;-49
2021/07/25 02:39:37;;;;;;;61.03;30.80;;;;;;;;;;5014340;28;20384;-49
2021/07/25 02:42:04;;;;;;;46.40;29.97;;;;;;;;;;5013559;28;20386;-49
2021/07/25 02:44:30;;;;;;;46.23;30.10;;;;;;;;;;5013951;28;20441;-49
2021/07/25 02:46:56;;;;;;;43.20;29.30;;;;;;;;;;5013588;28;20489;-49
2021/07/25 02:49:22;;;;;;;186.50;54.80;;;;;;;;;;5013755;28;20795;-49
2021/07/25 02:51:47;;;;;;;53.87;30.73;;;;;;;;;;5013185;28;20442;-49
2021/07/25 02:54:14;;;;;;;44.83;29.27;;;;;;;;;;5013760;28;20969;-49
2021/07/25 02:56:39;;;;;;;40.17;28.47;;;;;;;;;;5013590;28;20442;-49
2021/07/25 02:59:05;;;;;;;43.43;30.10;;;;;;;;;;5014072;28;20407;-49
2021/07/25 03:01:31;;;;;;;44.80;29.30;;;;;;;;;;5013185;28;20961;-50
2021/07/25 03:03:57;;;;;;;43.53;27.67;;;;;;;;;;5013286;28;20428;-49
2021/07/25 03:06:23;;;;;;;42.10;27.70;;;;;;;;;;5013688;28;20453;-49
2021/07/25 03:08:49;;;;;;;41.30;28.20;;;;;;;;;;4995792;28;20481;-49
2021/07/25 03:11:15;;;;;;;42.13;28.87;;;;;;;;;;5011971;28;20392;-49
2021/07/25 03:13:41;;;;;;;42.23;27.83;;;;;;;;;;5013181;28;20384;-49
2021/07/25 03:16:08;;;;;;;51.90;29.60;;;;;;;;;;5013157;28;20417;-49
2021/07/25 03:18:34;;;;;;;42.17;27.73;;;;;;;;;;5013245;28;20412;-49
2021/07/25 03:21:01;;;;;;;54.77;29.80;;;;;;;;;;5012963;28;20564;-49
2021/07/25 03:23:27;;;;;;;42.80;28.20;;;;;;;;;;5013195;28;20409;-49
2021/07/25 03:25:53;;;;;;;45.23;28.87;;;;;;;;;;5013100;28;20407;-49
2021/07/25 03:28:19;;;;;;;45.43;29.80;;;;;;;;;;5013056;28;20457;-49
2021/07/25 03:30:46;;;;;;;45.50;29.00;;;;;;;;;;5012587;28;20424;-49
2021/07/25 03:33:12;;;;;;;48.60;31.40;;;;;;;;;;5012959;28;20392;-49
2021/07/25 03:35:38;;;;;;;45.70;27.70;;;;;;;;;;5012873;28;20475;-49
2021/07/25 03:38:04;;;;;;;51.57;31.07;;;;;;;;;;5012915;28;20410;-49
2021/07/25 03:40:30;;;;;;;42.73;29.43;;;;;;;;;;5012590;28;20921;-49
2021/07/25 03:42:57;;;;;;;45.93;30.70;;;;;;;;;;5012737;28;20399;-49
2021/07/25 03:45:24;;;;;;;47.97;29.80;;;;;;;;;;5012518;28;20414;-49
2021/07/25 03:47:50;;;;;;;41.20;28.10;;;;;;;;;;5012679;28;20458;-49
2021/07/25 03:50:16;;;;;;;41.73;28.50;;;;;;;;;;5012247;28;20445;-50
2021/07/25 03:52:42;;;;;;;44.80;30.10;;;;;;;;;;5012730;28;20484;-49
2021/07/25 03:55:08;;;;;;;45.33;30.30;;;;;;;;;;5012887;28;20412;-50
2021/07/25 03:57:35;;;;;;;43.97;29.67;;;;;;;;;;5012586;28;20409;-49
2021/07/25 04:00:01;;;;;;;46.63;31.20;;;;;;;;;;5013576;28;20800;-48
2021/07/25 04:02:27;;;;;;;53.17;32.73;;;;;;;;;;5012508;28;20380;-48
2021/07/25 04:04:53;;;;;;;47.97;31.70;;;;;;;;;;5012711;28;20413;-49
2021/07/25 04:07:19;;;;;;;50.83;30.17;;;;;;;;;;5012149;28;20486;-51
2021/07/25 04:09:45;;;;;;;49.53;30.50;;;;;;;;;;5012331;28;20405;-49
2021/07/25 04:12:11;;;;;;;46.80;30.73;;;;;;;;;;5012010;28;20735;-50
2021/07/25 04:14:37;;;;;;;51.07;32.70;;;;;;;;;;5012324;28;20395;-50
2021/07/25 04:17:04;;;;;;;49.67;30.93;;;;;;;;;;5012011;28;20871;-51
2021/07/25 04:19:30;;;;;;;46.90;31.10;;;;;;;;;;5012154;28;20413;-49
2021/07/25 04:21:56;;;;;;;48.10;31.10;;;;;;;;;;5011564;28;20418;-51
2021/07/25 04:24:22;;;;;;;50.67;32.00;;;;;;;;;;5011977;28;20413;-49
2021/07/25 04:26:48;;;;;;;50.57;32.33;;;;;;;;;;5011877;28;20554;-48
2021/07/25 04:29:15;;;;;;;53.40;34.07;;;;;;;;;;5011739;28;20428;-50
2021/07/25 04:31:41;;;;;;;54.73;32.37;;;;;;;;;;5011892;28;20502;-48
2021/07/25 04:34:07;;;;;;;46.90;30.37;;;;;;;;;;5011802;28;20416;-48
2021/07/25 04:36:33;;;;;;;53.30;31.37;;;;;;;;;;5011945;28;20385;-48
2021/07/25 04:39:00;;;;;;;48.67;31.20;;;;;;;;;;5011677;28;20447;-48
2021/07/25 04:41:27;;;;;;;56.40;30.90;;;;;;;;;;5011380;28;20913;-49
2021/07/25 04:44:00;;;;;;;44.77;30.20;;;;;;;;;;5011496;28;20445;-49
2021/07/25 04:46:29;;;;;;;44.67;29.40;;;;;;;;;;5011867;28;20474;-48
2021/07/25 04:49:01;;;;;;;48.13;32.07;;;;;;;;;;5011717;28;20848;-48
2021/07/25 04:51:27;;;;;;;42.23;28.50;;;;;;;;;;5011350;28;20504;-48
2021/07/25 04:53:57;;;;;;;39.30;26.90;;;;;;;;;;5011467;28;20380;-49
2021/07/25 04:56:23;;;;;;;32.40;24.50;;;;;;;;;;5011637;28;20399;-48
2021/07/25 04:58:52;;;;;;;33.30;24.13;;;;;;;;;;5011524;28;20677;-48
2021/07/25 05:01:26;;;;;;;29.53;22.97;;;;;;;;;;5010994;28;20414;-51
2021/07/25 05:03:52;;;;;;;34.13;24.07;;;;;;;;;;5011306;28;20434;-51
2021/07/25 05:06:20;;;;;;;30.43;22.30;;;;;;;;;;5011134;28;20415;-51
2021/07/25 05:08:46;;;;;;;33.60;23.17;;;;;;;;;;5011233;28;20381;-48
2021/07/25 05:11:15;;;;;;;30.43;20.87;;;;;;;;;;5011010;28;20751;-48
2021/07/25 05:13:43;;;;;;;29.43;21.40;;;;;;;;;;5011197;28;20366;-47
2021/07/25 05:16:10;;;;;;;33.10;22.93;;;;;;;;;;5011061;28;20406;-48
2021/07/25 05:18:40;;;;;;;25.40;21.80;;;;;;;;;;5011181;28;20488;-47
2021/07/25 05:21:15;;;;;;;28.33;21.23;;;;;;;;;;5010577;28;20967;-49
2021/07/25 05:23:45;;;;;;;27.43;20.90;;;;;;;;;;5011042;28;20781;-50
2021/07/25 05:26:14;;;;;;;32.67;24.80;;;;;;;;;;5010961;28;20410;-49
2021/07/25 05:28:41;;;;;;;33.77;23.20;;;;;;;;;;5010922;28;20935;-48
2021/07/25 05:31:08;;;;;;;31.50;24.20;;;;;;;;;;5010758;28;20398;-48
2021/07/25 05:33:34;;;;;;;32.63;24.20;;;;;;;;;;5010292;28;20386;-48
2021/07/25 05:36:00;;;;;;;26.20;20.73;;;;;;;;;;5010776;28;20403;-48
2021/07/25 05:38:26;;;;;;;30.17;20.00;;;;;;;;;;5010903;28;20410;-49
2021/07/25 05:40:52;;;;;;;24.90;20.93;;;;;;;;;;5010768;28;20935;-49
2021/07/25 05:43:18;;;;;;;32.80;19.57;;;;;;;;;;5011024;28;20373;-48
2021/07/25 05:45:44;;;;;;;29.00;20.00;;;;;;;;;;5010946;28;20409;-48
2021/07/25 05:48:10;;;;;;;22.77;17.77;;;;;;;;;;5010504;28;20462;-48
2021/07/25 05:50:36;;;;;;;21.87;16.77;;;;;;;;;;5010469;28;20454;-48
2021/07/25 05:53:03;;;;;;;27.60;18.90;;;;;;;;;;5010784;28;20400;-49
2021/07/25 05:55:30;;;;;;;19.57;15.60;;;;;;;;;;5010828;28;20460;-49
2021/07/25 05:57:56;;;;;;;17.57;15.47;;;;;;;;;;5010785;28;20399;-48
2021/07/25 06:00:22;;;;;;;20.23;15.50;;;;;;;;;;5010216;28;20435;-48
2021/07/25 06:02:49;;;;;;;18.33;14.37;;;;;;;;;;5010456;28;20403;-49
2021/07/25 06:05:15;;;;;;;15.80;12.97;;;;;;;;;;5010756;28;20407;-48
2021/07/25 06:07:41;;;;;;;17.90;14.50;;;;;;;;;;5010616;28;20472;-48
2021/07/25 06:10:07;;;;;;;16.20;13.00;;;;;;;;;;5010363;28;20427;-48
2021/07/25 06:12:33;;;;;;;15.83;12.93;;;;;;;;;;5010406;28;20399;-48
2021/07/25 06:14:59;;;;;;;21.20;12.40;;;;;;;;;;5010444;28;20391;-48
2021/07/25 06:17:25;;;;;;;15.10;12.43;;;;;;;;;;5010421;28;20406;-47
2021/07/25 06:19:51;;;;;;;11.03;9.70;;;;;;;;;;5010332;28;20490;-49
2021/07/25 06:22:17;;;;;;;13.60;10.10;;;;;;;;;;5010247;28;20400;-49
2021/07/25 06:24:43;;;;;;;11.87;10.03;;;;;;;;;;5010609;28;20768;-49
2021/07/25 06:27:09;;;;;;;12.50;10.20;;;;;;;;;;5010216;28;20521;-50
2021/07/25 06:29:35;;;;;;;14.80;9.10;;;;;;;;;;5010431;28;20435;-48
2021/07/25 06:32:00;;;;;;;9.37;8.43;;;;;;;;;;5009864;28;20427;-49
2021/07/25 06:34:26;;;;;;;9.93;9.00;;;;;;;;;;5010345;28;20462;-50
2021/07/25 06:36:52;;;;;;;10.23;9.23;;;;;;;;;;5010157;28;20503;-50
2021/07/25 06:39:18;;;;;;;12.30;8.70;;;;;;;;;;5010267;28;20410;-51
2021/07/25 06:41:44;;;;;;;9.83;8.83;;;;;;;;;;5009803;28;20429;-48
2021/07/25 06:44:10;;;;;;;10.10;8.40;;;;;;;;;;5010333;28;20407;-49
2021/07/25 06:46:36;;;;;;;9.53;7.20;;;;;;;;;;5012499;28;20464;-48
2021/07/25 06:49:02;;;;;;;10.30;8.30;;;;;;;;;;5013901;28;20486;-48
2021/07/25 06:51:28;;;;;;;8.20;7.40;;;;;;;;;;5013649;28;20503;-49
2021/07/25 06:53:54;;;;;;;10.63;8.23;;;;;;;;;;5013575;28;20409;-48
2021/07/25 06:56:20;;;;;;;8.30;6.77;;;;;;;;;;5013734;28;20438;-50
2021/07/25 06:58:46;;;;;;;7.57;6.57;;;;;;;;;;5013546;28;20412;-49
2021/07/25 07:01:12;;;;;;;7.63;6.47;;;;;;;;;;5013282;28;20933;-48
2021/07/25 07:03:38;;;;;;;6.40;5.80;;;;;;;;;;5012783;28;20399;-50
2021/07/25 07:06:08;;;;;;;7.60;6.27;;;;;;;;;;5012797;28;20395;-51
2021/07/25 07:08:34;;;;;;;6.40;5.40;;;;;;;;;;5012910;28;20417;-48
2021/07/25 07:11:00;;;;;;;9.40;5.83;;;;;;;;;;5012700;28;20422;-49
2021/07/25 07:13:26;;;;;;;7.10;5.60;;;;;;;;;;5012692;28;20960;-49
2021/07/25 07:15:52;;;;;;;6.23;5.63;;;;;;;;;;5012783;28;20398;-49
2021/07/25 07:18:19;;;;;;;10.73;5.70;;;;;;;;;;5013070;28;20482;-48
2021/07/25 07:20:45;;;;;;;6.03;4.97;;;;;;;;;;5013308;28;20435;-49
2021/07/25 07:23:12;;;;;;;7.20;5.10;;;;;;;;;;5013272;28;20410;-51
2021/07/25 07:25:43;;;;;;;8.53;5.53;;;;;;;;;;5013115;28;20897;-49
2021/07/25 07:28:09;;;;;;;4.73;4.30;;;;;;;;;;5013137;28;20461;-49
2021/07/25 07:30:36;;;;;;;5.87;5.27;;;;;;;;;;5012955;28;20931;-48
2021/07/25 07:33:12;;;;;;;7.63;5.03;;;;;;;;;;5013285;28;20417;-50
2021/07/25 07:35:38;;;;;;;7.93;4.80;;;;;;;;;;5013310;28;20398;-50
2021/07/25 07:38:05;;;;;;;5.80;4.20;;;;;;;;;;5013433;28;20419;-49
2021/07/25 07:40:31;;;;;;;7.60;4.67;;;;;;;;;;5012753;28;20419;-49
2021/07/25 07:42:57;;;;;;;29.37;6.27;;;;;;;;;;5012956;28;20481;-49
2021/07/25 07:45:23;;;;;;;127.80;13.40;;;;;;;;;;5012908;28;20399;-49
2021/07/25 07:47:49;;;;;;;7.20;4.90;;;;;;;;;;5012888;28;20983;-49
2021/07/25 07:50:16;;;;;;;7.23;4.10;;;;;;;;;;5012362;28;20443;-49
2021/07/25 07:52:42;;;;;;;5.80;4.93;;;;;;;;;;5012868;28;20441;-49
2021/07/25 07:55:08;;;;;;;7.43;4.67;;;;;;;;;;5012796;28;20930;-48
2021/07/25 07:57:34;;;;;;;6.53;5.30;;;;;;;;;;5011869;28;20407;-49
2021/07/25 08:00:00;;;;;;;5.60;3.63;;;;;;;;;;5012659;28;20433;-49
2021/07/25 08:02:26;;;;;;;5.20;4.80;;;;;;;;;;5012227;28;20399;-49
2021/07/25 08:04:52;;;;;;;8.23;5.17;;;;;;;;;;5012612;28;20505;-49
2021/07/25 08:07:18;;;;;;;5.00;4.50;;;;;;;;;;5012495;28;20808;-48
2021/07/25 08:09:44;;;;;;;5.57;4.53;;;;;;;;;;5012325;28;20923;-49
2021/07/25 08:12:10;;;;;;;5.70;4.13;;;;;;;;;;5011951;28;20403;-50
2021/07/25 08:14:36;;;;;;;7.97;3.97;;;;;;;;;;5012382;28;20761;-51
2021/07/25 08:17:02;;;;;;;4.47;4.03;;;;;;;;;;5012156;28;20403;-52
2021/07/25 08:19:28;;;;;;;5.23;3.87;;;;;;;;;;5012273;28;20438;-51
2021/07/25 08:21:54;;;;;;;5.07;4.43;;;;;;;;;;5011731;28;20430;-50
2021/07/25 08:24:20;;;;;;;3.83;3.47;;;;;;;;;;5012106;28;20470;-50
2021/07/25 08:26:46;;;;;;;7.20;3.73;;;;;;;;;;5011936;28;20539;-51
2021/07/25 08:29:12;;;;;;;4.90;3.70;;;;;;;;;;5012021;28;20457;-51
2021/07/25 08:31:38;;;;;;;5.00;3.90;;;;;;;;;;5011820;28;20419;-49
2021/07/25 08:34:04;;;;;;;3.50;3.20;;;;;;;;;;5011801;28;20772;-49
2021/07/25 08:36:30;;;;;;;3.80;3.50;;;;;;;;;;5011959;28;20403;-49
2021/07/25 08:38:56;;;;;;;4.40;3.43;;;;;;;;;;5011696;28;20407;-50
2021/07/25 08:41:33;;;;;;;4.60;3.90;;;;;;;;;;5011548;28;20434;-49
2021/07/25 08:44:25;;;;;;;5.73;3.77;;;;;;;;;;5011625;28;20936;-52
2021/07/25 08:46:55;;;;;;;3.83;3.53;;;;;;;;;;4981373;28;20521;-51
2021/07/25 08:49:26;;;;;;;4.13;3.77;;;;;;;;;;5011521;28;21073;-49
2021/07/25 08:51:59;;;;;;;3.80;3.53;;;;;;;;;;5011311;28;20976;-51
2021/07/25 08:54:28;;;;;;;4.43;4.00;;;;;;;;;;5011744;28;20484;-52
2021/07/25 08:56:56;;;;;;;4.20;3.40;;;;;;;;;;5011665;28;20407;-50
2021/07/25 08:59:22;;;;;;;3.47;3.17;;;;;;;;;;5011513;28;20422;-53
2021/07/25 09:01:51;;;;;;;4.30;3.60;;;;;;;;;;5011242;28;20586;-52
2021/07/25 09:04:17;;;;;;;6.40;3.47;;;;;;;;;;5011350;28;20402;-50
2021/07/25 09:06:50;;;;;;;4.33;3.43;;;;;;;;;;5011576;28;20505;-49
2021/07/25 09:09:19;;;;;;;4.40;3.47;;;;;;;;;;5010618;28;20406;-50
2021/07/25 09:11:49;;;;;;;5.13;3.30;;;;;;;;;;5011512;28;20469;-50
2021/07/25 09:14:15;;;;;;;5.03;4.10;;;;;;;;;;5011475;28;20893;-51
2021/07/25 09:16:41;;;;;;;6.90;3.20;;;;;;;;;;5011474;28;20413;-50
2021/07/25 09:19:07;;;;;;;8.70;3.70;;;;;;;;;;5011747;28;20208;-49
2021/07/25 09:21:52;;;;;;;3.80;3.50;;;;;;;;;;5011076;28;20461;-51
2021/07/25 09:24:24;;;;;;;6.90;4.23;;;;;;;;;;5011317;28;20403;-50
2021/07/25 09:26:53;;;;;;;7.20;4.30;;;;;;;;;;5011006;28;20490;-49
2021/07/25 09:29:21;;;;;;;4.70;4.27;;;;;;;;;;5011173;28;20830;-52
2021/07/25 09:31:47;;;;;;;3.70;3.40;;;;;;;;;;5010701;28;20945;-50
2021/07/25 09:34:33;;;;;;;7.10;3.93;;;;;;;;;;5011122;28;20407;-53
2021/07/25 09:37:08;;;;;;;5.70;3.00;;;;;;;;;;5011019;28;20407;-52
2021/07/25 09:39:39;;;;;;;4.73;3.80;;;;;;;;;;5010905;28;20413;-50
2021/07/25 09:42:05;;;;;;;3.43;3.13;;;;;;;;;;5010594;28;20976;-52
2021/07/25 09:44:49;;;;;;;3.30;3.00;;;;;;;;;;5010985;28;20407;-51
2021/07/25 09:47:28;;;;;;;4.47;3.37;;;;;;;;;;5010725;28;20509;-52
2021/07/25 09:49:55;;;;;;;3.07;2.77;;;;;;;;;;5010577;28;20407;-50
2021/07/25 09:52:50;;;;;;;2.90;2.70;;;;;;;;;;5010470;28;20892;-49
2021/07/25 09:55:16;;;;;;;3.40;3.10;;;;;;;;;;4993981;28;20546;-50
2021/07/25 09:57:54;;;;;;;3.23;2.93;;;;;;;;;;5010500;28;20900;-52
2021/07/25 10:00:20;;;;;;;5.13;3.20;;;;;;;;;;5010419;28;20278;-52
2021/07/25 10:02:46;;;;;;;5.53;3.23;;;;;;;;;;4977679;28;20424;-52
2021/07/25 10:05:13;;;;;;;3.20;2.93;;;;;;;;;;4971729;28;20405;-51
2021/07/25 10:07:40;;;;;;;3.60;3.30;;;;;;;;;;4971782;28;20209;-51
2021/07/25 10:10:06;;;;;;;3.23;2.93;;;;;;;;;;4971650;28;20420;-51
2021/07/25 10:12:33;;;;;;;4.70;2.70;;;;;;;;;;4971508;28;20411;-51
2021/07/25 10:15:01;;;;;;;2.97;2.57;;;;;;;;;;4971626;28;20436;-50
2021/07/25 10:17:27;;;;;;;3.07;2.83;;;;;;;;;;4971565;28;20748;-51
2021/07/25 10:19:54;;;;;;;2.93;2.73;;;;;;;;;;4971651;28;20449;-50
2021/07/25 10:22:21;;;;;;;6.10;2.80;;;;;;;;;;4975211;28;20776;-50
2021/07/25 10:24:49;;;;;;;3.83;3.23;;;;;;;;;;4975420;28;20563;-50
2021/07/25 10:27:16;;;;;;;3.23;2.90;;;;;;;;;;4975489;28;20456;-51
2021/07/25 10:29:42;;;;;;;5.83;2.73;;;;;;;;;;4975136;28;20951;-50
2021/07/25 10:32:09;;;;;;;2.77;2.57;;;;;;;;;;4975130;28;20397;-51
2021/07/25 10:34:37;;;;;;;4.53;2.27;;;;;;;;;;4975061;28;20405;-50
2021/07/25 10:37:03;;;;;;;3.10;2.90;;;;;;;;;;4975242;28;20405;-50
2021/07/25 10:39:30;;;;;;;3.13;2.83;;;;;;;;;;4975034;28;20432;-50
2021/07/25 10:42:00;;;;;;;3.10;2.90;;;;;;;;;;4974773;28;20432;-51
2021/07/25 10:44:28;;;;;;;2.60;2.40;;;;;;;;;;4975119;28;20400;-51
2021/07/25 10:47:12;;;;;;;3.80;2.67;;;;;;;;;;4974934;28;20966;-51
2021/07/25 10:49:38;;;;;;;4.90;2.50;;;;;;;;;;4974703;28;20992;-49
2021/07/25 10:52:04;;;;;;;4.20;3.80;;;;;;;;;;4977117;28;20411;-50
2021/07/25 10:54:31;;;;;;;2.87;2.50;;;;;;;;;;4994070;28;20575;-50
2021/07/25 10:57:02;;;;;;;5.73;2.90;;;;;;;;;;4994220;28;20784;-49
2021/07/25 10:59:41;;;;;;;3.20;2.90;;;;;;;;;;4994114;28;21243;-48
2021/07/25 11:02:08;;;;;;;3.90;3.10;;;;;;;;;;4993967;28;20462;-49
2021/07/25 11:04:52;;;;;;;2.63;2.43;;;;;;;;;;4994050;28;20773;-48
2021/07/25 11:07:24;;;;;;;3.13;2.80;;;;;;;;;;4994025;28;20493;-49
2021/07/25 11:12:47;;;;;;;3.53;2.87;;;;;;;;;;5067986;28;20548;-50
2021/07/25 11:15:31;;;;;;;4.30;3.13;;;;;;;;;;5622350;22;20459;-52
2021/07/25 11:17:58;;;;;;;3.03;2.83;;;;;;;;;;5046805;28;20234;-51
2021/07/25 11:20:51;;;;;;;3.67;3.03;;;;;;;;;;5048386;28;20436;-51
2021/07/25 11:23:20;;;;;;;4.10;2.90;;;;;;;;;;5044806;28;20487;-52
2021/07/25 11:25:47;;;;;;;4.87;3.47;;;;;;;;;;5047535;28;20421;-52
2021/07/25 11:28:33;;;;;;;3.70;3.00;;;;;;;;;;5054603;22;20517;-53
2021/07/25 11:31:01;;;;;;;4.43;2.80;;;;;;;;;;5027707;28;20458;-50
2021/07/25 11:33:43;;;;;;;4.67;3.10;;;;;;;;;;5027744;28;20399;-50
2021/07/25 11:36:13;;;;;;;3.50;3.20;;;;;;;;;;5027708;28;20457;-50
2021/07/25 11:38:40;;;;;;;3.03;2.73;;;;;;;;;;5027858;28;20425;-51
2021/07/25 11:41:07;;;;;;;3.70;3.40;;;;;;;;;;5027718;28;20493;-50
2021/07/25 11:43:51;;;;;;;3.80;2.80;;;;;;;;;;5027711;28;20414;-50
2021/07/25 11:46:20;;;;;;;2.93;2.73;;;;;;;;;;5026838;28;20801;-50
2021/07/25 11:48:46;;;;;;;3.53;3.23;;;;;;;;;;5027293;28;20438;-50
2021/07/25 11:51:12;;;;;;;3.03;2.80;;;;;;;;;;5026975;28;20511;-50
2021/07/25 11:53:41;;;;;;;3.40;3.10;;;;;;;;;;5027504;28;20175;-50
2021/07/25 11:56:13;;;;;;;3.00;2.73;;;;;;;;;;5027290;28;20195;-52
2021/07/25 11:58:39;;;;;;;3.60;3.30;;;;;;;;;;5027395;28;20917;-50
2021/07/25 12:01:11;;;;;;;3.27;2.87;;;;;;;;;;5027372;28;20489;-52
2021/07/25 12:03:37;;;;;;;3.60;3.30;;;;;;;;;;5027359;28;20398;-50
2021/07/25 12:06:12;;;;;;;6.30;3.40;;;;;;;;;;5027031;28;20406;-50
2021/07/25 12:08:38;;;;;;;2.90;2.70;;;;;;;;;;5027335;28;20274;-50
2021/07/25 12:11:04;;;;;;;6.10;3.00;;;;;;;;;;5027237;28;20537;-51
2021/07/25 12:13:30;;;;;;;3.73;3.00;;;;;;;;;;5027186;28;20222;-50
2021/07/25 12:16:03;;;;;;;3.47;2.97;;;;;;;;;;5027099;28;20399;-51
2021/07/25 12:18:29;;;;;;;3.50;2.43;;;;;;;;;;5027377;28;20645;-53
2021/07/25 12:20:55;;;;;;;2.93;2.63;;;;;;;;;;5027349;28;20434;-50
2021/07/25 12:23:35;;;;;;;2.47;2.37;;;;;;;;;;5017561;28;20996;-50
2021/07/25 12:26:01;;;;;;;3.27;2.27;;;;;;;;;;5013666;28;20178;-50
2021/07/25 12:28:28;;;;;;;3.47;3.17;;;;;;;;;;5013467;28;20443;-50
2021/07/25 12:30:56;;;;;;;3.67;2.30;;;;;;;;;;5013735;28;20192;-51
2021/07/25 12:33:28;;;;;;;3.10;2.77;;;;;;;;;;5012518;28;20403;-51
2021/07/25 12:35:54;;;;;;;2.77;2.57;;;;;;;;;;5011537;28;20399;-51
2021/07/25 12:38:20;;;;;;;3.33;2.60;;;;;;;;;;5011466;28;20429;-53
2021/07/25 12:40:47;;;;;;;3.73;2.50;;;;;;;;;;5011831;28;20406;-50
2021/07/25 12:43:17;;;;;;;4.30;2.47;;;;;;;;;;5011479;28;20489;-51
2021/07/25 12:45:44;;;;;;;2.70;2.50;;;;;;;;;;5011586;28;20407;-50
2021/07/25 12:48:13;;;;;;;4.50;2.77;;;;;;;;;;5011399;28;20434;-51
2021/07/25 12:50:43;;;;;;;2.80;2.60;;;;;;;;;;5011370;28;20844;-51
2021/07/25 12:53:16;;;;;;;4.70;2.73;;;;;;;;;;5011130;28;20403;-51
2021/07/25 12:55:44;;;;;;;2.70;2.50;;;;;;;;;;5011614;28;20403;-50
2021/07/25 12:58:10;;;;;;;2.97;2.77;;;;;;;;;;5012849;28;20473;-50
2021/07/25 13:00:49;;;;;;;3.10;2.80;;;;;;;;;;5013168;28;20426;-50
2021/07/25 13:06:00;;;;;;;5.50;2.67;;;;;;;;;;5012890;28;20848;-50
2021/07/25 13:08:26;;;;;;;4.27;2.60;;;;;;;;;;5012853;28;20502;-50
2021/07/25 13:10:52;;;;;;;5.10;2.87;;;;;;;;;;5011245;28;20461;-51
2021/07/25 13:13:18;;;;;;;2.93;2.73;;;;;;;;;;5012727;28;20494;-51
2021/07/25 13:15:44;;;;;;;3.40;2.90;;;;;;;;;;5012653;28;20770;-51
2021/07/25 13:18:10;;;;;;;6.53;3.20;;;;;;;;;;5012570;28;20506;-51
2021/07/25 13:20:36;;;;;;;3.60;3.30;;;;;;;;;;5012809;28;20407;-50
2021/07/25 13:23:01;;;;;;;3.30;3.10;;;;;;;;;;5012650;28;20494;-50
2021/07/25 13:25:27;;;;;;;3.80;3.00;;;;;;;;;;5012532;28;20398;-50
2021/07/25 13:27:53;;;;;;;3.90;3.60;;;;;;;;;;5012675;28;21068;-50
2021/07/25 13:30:19;;;;;;;4.43;2.90;;;;;;;;;;5012412;28;20418;-50
2021/07/25 13:32:45;;;;;;;3.20;3.00;;;;;;;;;;5012298;28;20399;-50
2021/07/25 13:35:11;;;;;;;4.43;3.10;;;;;;;;;;5011414;28;20486;-51
2021/07/25 13:37:37;;;;;;;3.83;2.30;;;;;;;;;;5012579;28;20407;-50
2021/07/25 13:40:03;;;;;;;2.80;2.50;;;;;;;;;;5012371;28;20404;-52
2021/07/25 13:42:30;;;;;;;2.63;2.43;;;;;;;;;;5012286;28;20172;-51
2021/07/25 13:44:59;;;;;;;2.63;2.47;;;;;;;;;;5012029;28;20411;-50
2021/07/25 13:47:25;;;;;;;3.47;2.50;;;;;;;;;;5012196;28;21086;-50
2021/07/25 13:49:51;;;;;;;2.43;2.17;;;;;;;;;;5012246;28;20407;-50
2021/07/25 13:52:17;;;;;;;4.70;2.50;;;;;;;;;;5012199;28;20454;-50
2021/07/25 13:54:43;;;;;;;2.40;2.30;;;;;;;;;;5012057;28;20952;-50
2021/07/25 13:57:09;;;;;;;3.50;2.67;;;;;;;;;;5012360;28;20407;-50
2021/07/25 13:59:35;;;;;;;3.30;2.40;;;;;;;;;;5012012;28;20247;-50
2021/07/25 14:02:01;;;;;;;2.50;2.30;;;;;;;;;;5012054;28;20925;-50
2021/07/25 14:04:27;;;;;;;3.93;2.50;;;;;;;;;;5012007;28;20415;-51
2021/07/25 14:06:53;;;;;;;2.70;2.50;;;;;;;;;;5012068;28;20816;-50
2021/07/25 14:09:19;;;;;;;3.53;2.20;;;;;;;;;;5011889;28;20607;-50
2021/07/25 14:11:45;;;;;;;2.63;2.43;;;;;;;;;;5011795;28;20453;-50
2021/07/25 14:14:18;;;;;;;2.90;2.70;;;;;;;;;;5011727;28;20399;-51
2021/07/25 14:16:44;;;;;;;4.43;2.80;;;;;;;;;;5011605;28;20883;-50
2021/07/25 14:19:10;;;;;;;2.97;2.77;;;;;;;;;;5011592;28;20422;-51
2021/07/25 14:21:36;;;;;;;3.73;2.80;;;;;;;;;;5011725;28;20878;-49
2021/07/25 14:24:02;;;;;;;2.70;2.53;;;;;;;;;;5011598;28;20426;-50
2021/07/25 14:26:28;;;;;;;3.43;2.63;;;;;;;;;;5011345;28;20438;-50
2021/07/25 14:28:54;;;;;;;3.60;3.27;;;;;;;;;;5011338;28;20446;-50
2021/07/25 14:31:20;;;;;;;2.97;2.70;;;;;;;;;;5011334;28;20461;-50
2021/07/25 14:33:45;;;;;;;3.30;3.00;;;;;;;;;;5011461;28;20405;-50
2021/07/25 14:36:11;;;;;;;4.57;3.27;;;;;;;;;;5011198;28;20442;-51
2021/07/25 14:38:38;;;;;;;2.53;2.43;;;;;;;;;;5011503;28;20407;-50